createdAt,value
2022-09-12T00:01:37.916Z,93.54
2022-09-12T00:04:06.811Z,93.33
2022-09-12T00:06:38.461Z,93.48
2022-09-12T00:09:12.333Z,93.73
2022-09-12T00:11:44.325Z,93.30
2022-09-12T00:14:19.291Z,93.54
2022-09-12T00:16:48.568Z,93.29
2022-09-12T00:19:17.262Z,93.56
2022-09-12T00:21:45.890Z,93.24
2022-09-12T00:24:15.930Z,93.15
2022-09-12T00:26:44.740Z,93.16
2022-09-12T00:29:18.163Z,93.07
2022-09-12T00:31:47.560Z,93.16
2022-09-12T00:34:16.271Z,93.07
2022-09-12T00:36:45.024Z,92.95
2022-09-12T00:39:18.220Z,92.86
2022-09-12T00:41:47.378Z,93.15
2022-09-12T00:44:52.602Z,92.80
2022-09-12T00:47:29.334Z,92.59
2022-09-12T00:50:07.521Z,92.28
2022-09-12T00:52:41.718Z,92.01
2022-09-12T00:55:16.954Z,91.89
2022-09-12T00:57:53.522Z,91.71
2022-09-12T01:00:25.712Z,91.63
2022-09-12T01:02:59.821Z,91.32
2022-09-12T01:05:30.847Z,91.20
2022-09-12T01:08:01.839Z,91.25
2022-09-12T01:10:34.329Z,91.21
2022-09-12T01:13:06.279Z,91.30
2022-09-12T01:15:35.967Z,91.24
2022-09-12T01:18:22.024Z,91.31
2022-09-12T01:21:25.949Z,91.02
2022-09-12T01:24:44.061Z,91.26
2022-09-12T01:27:55.755Z,91.35
2022-09-12T01:30:51.673Z,91.06
2022-09-12T01:33:39.159Z,91.30
2022-09-12T01:36:34.870Z,91.39
2022-09-12T01:39:07.318Z,91.35
2022-09-12T01:41:54.013Z,91.61
2022-09-12T01:44:38.740Z,91.56
2022-09-12T01:47:16.510Z,91.59
2022-09-12T01:49:59.966Z,92.06
2022-09-12T01:52:39.625Z,91.85
2022-09-12T01:55:16.247Z,91.85
2022-09-12T01:57:53.835Z,91.74
2022-09-12T02:00:22.638Z,91.57
2022-09-12T02:02:58.722Z,91.36
2022-09-12T02:05:34.420Z,91.27
2022-09-12T02:08:10.552Z,91.06
2022-09-12T02:10:48.434Z,90.79
2022-09-12T02:13:25.445Z,90.79
2022-09-12T02:16:01.710Z,90.51
2022-09-12T02:18:35.566Z,90.70
2022-09-12T02:21:09.283Z,90.43
2022-09-12T02:23:46.335Z,90.95
2022-09-12T02:26:24.170Z,90.79
2022-09-12T02:28:54.457Z,90.58
2022-09-12T02:31:31.493Z,90.54
2022-09-12T02:34:15.155Z,90.75
2022-09-12T02:36:56.112Z,90.80
2022-09-12T02:39:24.828Z,90.85
2022-09-12T02:41:56.623Z,90.90
2022-09-12T02:44:28.250Z,90.92
2022-09-12T02:47:03.958Z,90.75
2022-09-12T02:49:34.205Z,90.89
2022-09-12T02:52:04.012Z,90.44
2022-09-12T02:54:33.512Z,90.47
2022-09-12T02:57:02.229Z,90.46
2022-09-12T02:59:31.071Z,90.36
2022-09-12T03:02:21.355Z,90.17
2022-09-12T03:05:18.556Z,90.35
2022-09-12T03:08:25.599Z,90.34
2022-09-12T03:11:23.177Z,90.55
2022-09-12T03:14:07.325Z,90.64
2022-09-12T03:16:46.417Z,90.59
2022-09-12T03:19:25.543Z,90.99
2022-09-12T03:22:09.828Z,90.98
2022-09-12T03:24:49.313Z,90.85
2022-09-12T03:27:23.635Z,91.03
2022-09-12T03:29:53.708Z,90.81
2022-09-12T03:32:42.638Z,90.98
2022-09-12T03:35:13.735Z,91.08
2022-09-12T03:37:44.442Z,91.24
2022-09-12T03:40:13.864Z,91.24
2022-09-12T03:42:43.093Z,91.08
2022-09-12T03:45:12.723Z,91.09
2022-09-12T03:47:42.518Z,91.26
2022-09-12T03:50:11.951Z,90.98
2022-09-12T03:52:41.251Z,91.15
2022-09-12T03:55:11.985Z,91.15
2022-09-12T03:57:40.667Z,91.08
2022-09-12T04:00:11.123Z,91.19
2022-09-12T04:02:42.414Z,91.11
2022-09-12T04:05:11.187Z,91.54
2022-09-12T04:07:39.774Z,91.38
2022-09-12T04:10:10.855Z,91.59
2022-09-12T04:12:39.867Z,91.28
2022-09-12T04:15:10.719Z,91.30
2022-09-12T04:17:39.592Z,91.72
2022-09-12T04:20:09.160Z,91.51
2022-09-12T04:22:37.872Z,91.54
2022-09-12T04:25:07.914Z,91.45
2022-09-12T04:27:38.058Z,91.76
2022-09-12T04:30:09.003Z,91.56
2022-09-12T04:32:37.929Z,91.76
2022-09-12T04:35:07.183Z,91.79
2022-09-12T04:37:36.187Z,92.00
2022-09-12T04:40:05.667Z,92.10
2022-09-12T04:42:34.350Z,92.01
2022-09-12T04:45:06.303Z,91.94
2022-09-12T04:47:34.861Z,92.26
2022-09-12T04:50:06.485Z,92.06
2022-09-12T04:52:35.037Z,92.17
2022-09-12T04:55:03.634Z,92.09
2022-09-12T04:57:32.221Z,92.14
2022-09-12T05:00:07.019Z,92.43
2022-09-12T05:02:37.262Z,92.48
2022-09-12T05:05:06.907Z,92.42
2022-09-12T05:07:35.602Z,92.58
2022-09-12T05:10:05.180Z,92.56
2022-09-12T05:12:34.009Z,92.61
2022-09-12T05:15:02.638Z,92.38
2022-09-12T05:17:31.453Z,92.59
2022-09-12T05:20:01.900Z,92.72
2022-09-12T05:22:30.503Z,92.64
2022-09-12T05:24:59.065Z,92.88
2022-09-12T05:27:27.635Z,92.95
2022-09-12T05:29:56.172Z,92.83
2022-09-12T05:32:24.764Z,92.75
2022-09-12T05:34:53.438Z,92.64
2022-09-12T05:37:23.901Z,93.20
2022-09-12T05:39:52.963Z,92.97
2022-09-12T05:42:21.658Z,93.31
2022-09-12T05:44:50.293Z,93.33
2022-09-12T05:47:19.313Z,93.21
2022-09-12T05:49:48.178Z,93.16
2022-09-12T05:52:17.196Z,93.46
2022-09-12T05:54:47.624Z,93.53
2022-09-12T05:57:16.239Z,93.69
2022-09-12T05:59:45.406Z,93.72
2022-09-12T06:02:14.078Z,93.47
2022-09-12T06:04:42.689Z,93.38
2022-09-12T06:07:11.448Z,93.39
2022-09-12T06:09:40.002Z,93.60
2022-09-12T06:12:10.112Z,93.59
2022-09-12T06:14:38.934Z,93.59
2022-09-12T06:17:07.874Z,93.95
2022-09-12T06:19:36.502Z,94.08
2022-09-12T06:22:05.364Z,94.42
2022-09-12T06:24:33.960Z,94.61
2022-09-12T06:27:02.819Z,94.86
2022-09-12T06:29:33.101Z,94.85
2022-09-12T06:32:01.913Z,94.80
2022-09-12T06:34:31.052Z,94.78
2022-09-12T06:36:59.681Z,94.97
2022-09-12T06:39:28.282Z,94.61
2022-09-12T06:41:57.009Z,95.05
2022-09-12T06:44:37.452Z,94.83
2022-09-12T06:47:06.288Z,95.20
2022-09-12T06:49:35.556Z,95.08
2022-09-12T06:52:04.454Z,95.31
2022-09-12T06:54:32.982Z,95.20
2022-09-12T06:57:02.470Z,95.14
2022-09-12T06:59:31.078Z,95.04
2022-09-12T07:02:01.329Z,94.82
2022-09-12T07:04:30.514Z,95.21
2022-09-12T07:06:59.100Z,95.32
2022-09-12T07:09:27.828Z,95.78
2022-09-12T07:11:56.410Z,95.72
2022-09-12T07:14:26.113Z,95.22
2022-09-12T07:16:54.782Z,94.97
2022-09-12T07:19:25.015Z,94.97
2022-09-12T07:21:58.007Z,94.54
2022-09-12T07:24:27.368Z,94.18
2022-09-12T07:26:56.235Z,93.66
2022-09-12T07:29:36.479Z,94.68
2022-09-12T07:32:07.743Z,94.74
2022-09-12T07:34:38.153Z,94.32
2022-09-12T07:37:06.909Z,94.72
2022-09-12T07:39:35.443Z,94.76
2022-09-12T07:42:04.034Z,95.03
2022-09-12T07:44:32.803Z,94.67
2022-09-12T07:47:02.103Z,93.77
2022-09-12T07:49:30.734Z,93.39
2022-09-12T07:52:00.727Z,92.82
2022-09-12T07:54:29.293Z,92.45
2022-09-12T07:56:57.833Z,92.57
2022-09-12T07:59:50.831Z,91.43
2022-09-12T08:02:17.461Z,90.30
2022-09-12T08:04:48.384Z,88.83
2022-09-12T08:07:19.543Z,89.06
2022-09-12T08:09:48.575Z,87.53
2022-09-12T08:12:18.008Z,87.69
2022-09-12T08:14:46.594Z,87.94
2022-09-12T08:17:15.567Z,88.16
2022-09-12T08:19:44.976Z,88.20
2022-09-12T08:22:13.872Z,88.91
2022-09-12T08:24:44.529Z,88.17
2022-09-12T08:27:13.272Z,87.21
2022-09-12T08:29:42.386Z,87.14
2022-09-12T08:32:11.038Z,87.39
2022-09-12T08:34:39.639Z,87.78
2022-09-12T08:37:08.429Z,87.29
2022-09-12T08:39:37.165Z,85.67
2022-09-12T08:42:08.387Z,83.43
2022-09-12T08:45:15.361Z,79.67
2022-09-12T08:47:48.101Z,81.10
2022-09-12T08:50:20.287Z,80.78
2022-09-12T08:52:58.698Z,82.06
2022-09-12T08:55:36.466Z,77.87
2022-09-12T08:58:16.206Z,76.37
2022-09-12T09:00:59.564Z,74.48
2022-09-12T09:03:57.889Z,74.62
2022-09-12T09:07:04.259Z,75.17
2022-09-12T09:09:52.848Z,72.25
2022-09-12T09:12:36.558Z,71.38
2022-09-12T09:15:41.246Z,70.07
2022-09-12T09:18:19.839Z,71.03
2022-09-12T09:20:54.860Z,71.53
2022-09-12T09:23:30.976Z,74.64
2022-09-12T09:26:07.259Z,74.35
2022-09-12T09:28:43.612Z,69.22
2022-09-12T09:31:17.647Z,68.94
2022-09-12T09:33:51.056Z,67.55
2022-09-12T09:36:25.296Z,65.19
2022-09-12T09:39:05.919Z,65.38
2022-09-12T09:41:55.712Z,62.81
2022-09-12T09:44:24.957Z,61.71
2022-09-12T09:47:00.039Z,67.76
2022-09-12T09:49:32.992Z,64.85
2022-09-12T09:52:02.960Z,59.21
2022-09-12T09:54:40.554Z,59.37
2022-09-12T09:57:44.790Z,58.71
2022-09-12T10:00:32.077Z,61.24
2022-09-12T10:03:11.333Z,58.93
2022-09-12T10:05:50.239Z,59.55
2022-09-12T10:08:24.976Z,58.12
2022-09-12T10:11:05.092Z,59.12
2022-09-12T10:13:42.841Z,59.16
2022-09-12T10:16:23.162Z,55.33
2022-09-12T10:18:57.426Z,56.88
2022-09-12T10:21:41.336Z,54.84
2022-09-12T10:24:26.830Z,52.42
2022-09-12T10:27:07.005Z,53.96
2022-09-12T10:29:44.070Z,54.07
2022-09-12T10:32:16.258Z,53.02
2022-09-12T10:34:47.703Z,52.38
2022-09-12T10:37:27.687Z,52.79
2022-09-12T10:40:00.333Z,54.83
2022-09-12T10:42:52.017Z,57.34
2022-09-12T10:45:30.237Z,55.32
2022-09-12T10:48:06.826Z,54.34
2022-09-12T10:50:43.554Z,52.54
2022-09-12T10:53:21.571Z,52.77
2022-09-12T10:56:12.097Z,47.96
2022-09-12T10:59:14.687Z,47.74
2022-09-12T11:01:49.971Z,44.76
2022-09-12T11:04:30.544Z,48.97
2022-09-12T11:07:36.757Z,48.01
2022-09-12T11:10:22.978Z,47.21
2022-09-12T11:13:06.522Z,46.88
2022-09-12T11:15:58.004Z,47.02
2022-09-12T11:19:03.974Z,47.71
2022-09-12T11:21:53.461Z,48.62
2022-09-12T11:25:09.014Z,45.97
2022-09-12T11:28:00.303Z,46.11
2022-09-12T11:30:39.109Z,46.11
2022-09-12T11:33:47.941Z,47.67
2022-09-12T11:36:37.868Z,47.59
2022-09-12T11:39:16.699Z,48.83
2022-09-12T11:41:52.543Z,49.97
2022-09-12T11:44:26.761Z,48.37
2022-09-12T11:46:55.661Z,43.95
2022-09-12T11:49:35.776Z,45.71
2022-09-12T11:52:14.694Z,43.86
2022-09-12T11:54:53.549Z,45.09
2022-09-12T11:57:32.774Z,45.77
2022-09-12T12:00:07.863Z,43.42
2022-09-12T12:02:45.171Z,44.77
2022-09-12T12:05:23.717Z,44.58
2022-09-12T12:07:56.912Z,47.06
2022-09-12T12:10:34.007Z,49.00
2022-09-12T12:13:13.992Z,50.11
2022-09-12T12:15:50.207Z,49.57
2022-09-12T12:18:23.881Z,51.68
2022-09-12T12:20:54.862Z,47.34
2022-09-12T12:23:32.328Z,49.50
2022-09-12T12:26:03.459Z,52.44
2022-09-12T12:29:03.502Z,54.24
2022-09-12T12:31:32.512Z,53.93
2022-09-12T12:34:31.512Z,54.34
2022-09-12T12:37:21.272Z,54.85
2022-09-12T12:40:03.341Z,57.38
2022-09-12T12:43:26.980Z,56.64
2022-09-12T12:46:14.297Z,54.36
2022-09-12T12:49:09.707Z,54.81
2022-09-12T12:51:57.231Z,54.33
2022-09-12T12:54:59.078Z,53.96
2022-09-12T12:57:50.213Z,55.74
2022-09-12T13:00:34.606Z,50.92
2022-09-12T13:03:24.158Z,52.05
2022-09-12T13:06:01.725Z,52.01
2022-09-12T13:08:34.343Z,55.89
2022-09-12T13:11:09.559Z,56.93
2022-09-12T13:13:44.513Z,56.83
2022-09-12T13:16:29.935Z,56.58
2022-09-12T13:19:08.682Z,57.55
2022-09-12T13:21:38.607Z,57.51
2022-09-12T13:24:20.052Z,52.49
2022-09-12T13:26:49.620Z,52.98
2022-09-12T13:29:20.936Z,55.40
2022-09-12T13:31:54.020Z,55.30
2022-09-12T13:34:29.246Z,53.07
2022-09-12T13:37:31.292Z,54.81
2022-09-12T13:40:17.614Z,53.49
2022-09-12T13:42:49.876Z,54.68
2022-09-12T13:45:23.224Z,55.09
2022-09-12T13:47:58.857Z,53.94
2022-09-12T13:50:40.023Z,51.53
2022-09-12T13:53:17.237Z,45.90
2022-09-12T13:55:53.803Z,46.97
2022-09-12T13:58:30.214Z,47.00
2022-09-12T14:01:07.948Z,47.22
2022-09-12T14:04:00.864Z,46.97
2022-09-12T14:06:45.484Z,47.18
2022-09-12T14:09:21.825Z,49.15
2022-09-12T14:11:54.280Z,49.75
2022-09-12T14:14:34.450Z,50.17
2022-09-12T14:17:18.983Z,53.05
2022-09-12T14:19:54.400Z,49.72
2022-09-12T14:22:24.564Z,49.51
2022-09-12T14:24:54.747Z,50.08
2022-09-12T14:27:29.328Z,50.27
2022-09-12T14:30:07.604Z,49.07
2022-09-12T14:32:37.507Z,51.21
2022-09-12T14:35:24.668Z,50.21
2022-09-12T14:37:55.195Z,50.56
2022-09-12T14:40:27.652Z,50.24
2022-09-12T14:43:00.617Z,51.82
2022-09-12T14:45:34.205Z,50.74
2022-09-12T14:48:04.439Z,50.50
2022-09-12T14:51:00.721Z,48.67
2022-09-12T14:53:38.156Z,51.29
2022-09-12T14:56:14.816Z,52.69
2022-09-12T14:58:49.391Z,51.80
2022-09-12T15:01:28.539Z,53.25
2022-09-12T15:04:40.809Z,53.25
2022-09-12T15:07:27.582Z,54.00
2022-09-12T15:10:01.578Z,53.77
2022-09-12T15:12:30.839Z,52.47
2022-09-12T15:15:14.288Z,53.65
2022-09-12T15:17:43.506Z,54.41
2022-09-12T15:20:13.317Z,54.13
2022-09-12T15:22:44.848Z,55.01
2022-09-12T15:25:15.364Z,55.40
2022-09-12T15:27:43.921Z,55.38
2022-09-12T15:30:14.806Z,54.61
2022-09-12T15:32:45.839Z,55.04
2022-09-12T15:35:18.478Z,54.92
2022-09-12T15:37:47.338Z,55.96
2022-09-12T15:40:18.185Z,55.13
2022-09-12T15:42:46.893Z,57.59
2022-09-12T15:45:23.591Z,57.80
2022-09-12T15:47:54.602Z,58.16
2022-09-12T15:50:23.341Z,57.95
2022-09-12T15:52:52.443Z,58.94
2022-09-12T15:55:26.203Z,58.28
2022-09-12T15:57:54.902Z,59.10
2022-09-12T16:00:24.103Z,57.28
2022-09-12T16:02:54.930Z,57.77
2022-09-12T16:05:31.866Z,57.98
2022-09-12T16:08:03.648Z,58.65
2022-09-12T16:10:33.747Z,59.79
2022-09-12T16:13:04.404Z,59.89
2022-09-12T16:15:34.079Z,60.16
2022-09-12T16:18:02.687Z,60.67
2022-09-12T16:20:31.263Z,60.83
2022-09-12T16:22:59.850Z,61.60
2022-09-12T16:25:28.523Z,62.41
2022-09-12T16:27:58.687Z,62.78
2022-09-12T16:30:27.814Z,63.44
2022-09-12T16:32:56.614Z,63.91
2022-09-12T16:35:25.313Z,64.43
2022-09-12T16:37:54.283Z,64.96
2022-09-12T16:40:23.612Z,65.59
2022-09-12T16:42:52.400Z,65.93
2022-09-12T16:45:22.514Z,66.42
2022-09-12T16:47:51.225Z,66.82
2022-09-12T16:50:20.041Z,66.33
2022-09-12T16:52:48.796Z,67.89
2022-09-12T16:55:21.302Z,67.71
2022-09-12T16:57:50.691Z,68.43
2022-09-12T17:00:21.092Z,68.68
2022-09-12T17:02:50.906Z,68.60
2022-09-12T17:05:20.695Z,68.42
2022-09-12T17:07:49.886Z,69.07
2022-09-12T17:10:18.959Z,69.27
2022-09-12T17:12:48.524Z,70.05
2022-09-12T17:15:17.658Z,70.19
2022-09-12T17:17:48.173Z,70.33
2022-09-12T17:20:17.558Z,70.90
2022-09-12T17:22:46.200Z,70.61
2022-09-12T17:25:14.999Z,70.77
2022-09-12T17:27:44.172Z,71.34
2022-09-12T17:30:14.115Z,71.53
2022-09-12T17:32:43.241Z,71.83
2022-09-12T17:35:13.901Z,72.07
2022-09-12T17:37:42.895Z,71.28
2022-09-12T17:40:12.594Z,71.81
2022-09-12T17:42:43.314Z,72.01
2022-09-12T17:45:18.195Z,72.24
2022-09-12T17:47:47.419Z,72.26
2022-09-12T17:50:31.308Z,72.67
2022-09-12T17:53:01.433Z,72.81
2022-09-12T17:55:32.154Z,73.41
2022-09-12T17:58:02.255Z,73.04
2022-09-12T18:00:46.193Z,72.79
2022-09-12T18:03:15.934Z,72.72
2022-09-12T18:05:50.934Z,73.28
2022-09-12T18:08:20.509Z,72.90
2022-09-12T18:10:50.018Z,73.04
2022-09-12T18:13:20.375Z,73.80
2022-09-12T18:15:50.497Z,73.71
2022-09-12T18:18:57.230Z,74.41
2022-09-12T18:21:33.799Z,74.55
2022-09-12T18:24:04.815Z,74.42
2022-09-12T18:26:34.655Z,74.37
2022-09-12T18:29:03.423Z,73.94
2022-09-12T18:31:32.846Z,73.88
2022-09-12T18:34:28.519Z,74.68
2022-09-12T18:36:59.178Z,74.52
2022-09-12T18:39:28.164Z,74.50
2022-09-12T18:41:57.478Z,75.17
2022-09-12T18:44:28.147Z,75.19
2022-09-12T18:46:56.836Z,75.08
2022-09-12T18:49:25.606Z,75.39
2022-09-12T18:51:54.472Z,75.68
2022-09-12T18:54:24.874Z,75.64
2022-09-12T18:56:54.465Z,75.71
2022-09-12T18:59:24.360Z,75.30
2022-09-12T19:01:53.324Z,75.60
2022-09-12T19:04:22.458Z,75.81
2022-09-12T19:06:53.116Z,75.22
2022-09-12T19:09:25.886Z,75.29
2022-09-12T19:11:56.338Z,75.04
2022-09-12T19:14:27.736Z,74.83
2022-09-12T19:16:58.285Z,75.93
2022-09-12T19:19:28.271Z,76.05
2022-09-12T19:21:57.814Z,75.72
2022-09-12T19:24:29.392Z,75.73
2022-09-12T19:27:09.699Z,75.33
2022-09-12T19:29:41.821Z,76.04
2022-09-12T19:32:11.758Z,75.99
2022-09-12T19:34:40.878Z,76.42
2022-09-12T19:37:09.719Z,75.87
2022-09-12T19:39:43.002Z,75.38
2022-09-12T19:42:11.930Z,74.81
2022-09-12T19:44:41.542Z,75.09
2022-09-12T19:47:11.548Z,75.47
2022-09-12T19:49:42.212Z,75.60
2022-09-12T19:52:14.354Z,75.36
2022-09-12T19:54:46.927Z,75.28
2022-09-12T19:57:15.594Z,76.01
2022-09-12T19:59:45.295Z,76.00
2022-09-12T20:02:14.449Z,76.34
2022-09-12T20:04:43.323Z,75.98
2022-09-12T20:07:12.090Z,76.05
2022-09-12T20:09:40.779Z,76.58
2022-09-12T20:12:11.004Z,76.64
2022-09-12T20:14:39.600Z,76.96
2022-09-12T20:17:08.458Z,76.89
2022-09-12T20:19:37.377Z,76.50
2022-09-12T20:22:06.034Z,76.57
2022-09-12T20:24:35.633Z,75.85
2022-09-12T20:27:06.271Z,76.16
2022-09-12T20:29:36.319Z,75.78
2022-09-12T20:32:05.009Z,76.11
2022-09-12T20:34:33.650Z,76.27
2022-09-12T20:37:02.408Z,76.62
2022-09-12T20:39:31.198Z,76.53
2022-09-12T20:41:59.839Z,76.52
2022-09-12T20:44:30.322Z,75.69
2022-09-12T20:47:00.475Z,75.50
2022-09-12T20:49:29.159Z,75.30
2022-09-12T20:51:57.788Z,75.78
2022-09-12T20:54:26.499Z,75.80
2022-09-12T20:56:56.186Z,76.39
2022-09-12T20:59:24.806Z,76.52
2022-09-12T21:01:53.451Z,76.39
2022-09-12T21:04:23.994Z,76.37
2022-09-12T21:06:52.754Z,76.75
2022-09-12T21:09:21.509Z,76.13
2022-09-12T21:11:50.508Z,75.62
2022-09-12T21:14:19.023Z,75.57
2022-09-12T21:16:47.666Z,76.41
2022-09-12T21:19:16.982Z,76.12
2022-09-12T21:21:47.094Z,76.67
2022-09-12T21:24:16.087Z,76.48
2022-09-12T21:26:44.653Z,76.34
2022-09-12T21:29:13.614Z,76.05
2022-09-12T21:31:44.070Z,76.04
2022-09-12T21:34:12.946Z,76.41
2022-09-12T21:36:41.549Z,76.44
2022-09-12T21:39:11.677Z,76.49
2022-09-12T21:41:40.343Z,75.92
2022-09-12T21:44:09.490Z,76.07
2022-09-12T21:46:38.229Z,75.78
2022-09-12T21:49:07.044Z,76.51
2022-09-12T21:51:37.723Z,76.69
2022-09-12T21:54:06.835Z,76.27
2022-09-12T21:56:36.839Z,76.77
2022-09-12T21:59:05.622Z,76.67
2022-09-12T22:01:34.286Z,76.75
2022-09-12T22:04:03.111Z,76.91
2022-09-12T22:06:31.750Z,76.75
2022-09-12T22:09:00.371Z,76.47
2022-09-12T22:11:29.037Z,76.40
2022-09-12T22:13:59.061Z,76.95
2022-09-12T22:16:27.807Z,77.38
2022-09-12T22:18:57.920Z,77.53
2022-09-12T22:21:26.551Z,76.95
2022-09-12T22:24:12.323Z,77.18
2022-09-12T22:26:46.219Z,77.17
2022-09-12T22:29:16.281Z,77.55
2022-09-12T22:31:44.972Z,76.93
2022-09-12T22:34:13.730Z,76.89
2022-09-12T22:36:42.750Z,77.65
2022-09-12T22:39:11.414Z,77.47
2022-09-12T22:41:40.107Z,77.48
2022-09-12T22:44:08.719Z,77.30
2022-09-12T22:46:39.639Z,77.25
2022-09-12T22:49:08.864Z,77.53
2022-09-12T22:51:37.673Z,77.90
2022-09-12T22:54:06.886Z,77.55
2022-09-12T22:56:35.681Z,77.66
2022-09-12T22:59:04.592Z,76.89
2022-09-12T23:01:33.297Z,76.70
2022-09-12T23:04:04.216Z,77.12
2022-09-12T23:06:32.881Z,77.23
2022-09-12T23:09:01.880Z,77.51
2022-09-12T23:11:30.531Z,77.59
2022-09-12T23:13:59.129Z,77.42
2022-09-12T23:16:28.539Z,77.89
2022-09-12T23:18:57.317Z,78.10
2022-09-12T23:21:27.438Z,78.01
2022-09-12T23:23:56.335Z,78.13
2022-09-12T23:26:28.283Z,78.01
2022-09-12T23:28:59.520Z,78.39
2022-09-12T23:31:31.013Z,78.45
2022-09-12T23:34:03.109Z,78.11
2022-09-12T23:36:34.282Z,78.28
2022-09-12T23:39:03.003Z,78.12
2022-09-12T23:41:31.738Z,78.60
2022-09-12T23:44:00.745Z,78.53
2022-09-12T23:46:29.475Z,78.26
2022-09-12T23:48:58.104Z,78.18
2022-09-12T23:51:27.217Z,77.54
2022-09-12T23:53:57.271Z,78.17
2022-09-12T23:56:26.172Z,78.45
2022-09-12T23:58:54.735Z,78.57
